sensor_id;sensor_type;location;lat;lon;timestamp;P1;durP1;ratioP1;P2;durP2;ratioP2
5811;SDS011;2932;52.400;9.558;2022-11-20T00:01:38;11.00;;;6.40;;
5811;SDS011;2932;52.400;9.558;2022-11-20T00:04:04;10.50;;;6.43;;
5811;SDS011;2932;52.400;9.558;2022-11-20T00:06:29;9.37;;;6.30;;
5811;SDS011;2932;52.400;9.558;2022-11-20T00:08:55;11.73;;;6.83;;
5811;SDS011;2932;52.400;9.558;2022-11-20T00:11:23;12.17;;;6.80;;
5811;SDS011;2932;52.400;9.558;2022-11-20T00:13:50;11.20;;;6.90;;
5811;SDS011;2932;52.400;9.558;2022-11-20T00:16:18;10.17;;;6.40;;
5811;SDS011;2932;52.400;9.558;2022-11-20T00:18:45;10.77;;;6.53;;
5811;SDS011;2932;52.400;9.558;2022-11-20T00:21:11;11.97;;;7.20;;
5811;SDS011;2932;52.400;9.558;2022-11-20T00:23:38;10.00;;;5.83;;
5811;SDS011;2932;52.400;9.558;2022-11-20T00:26:04;11.03;;;6.20;;
5811;SDS011;2932;52.400;9.558;2022-11-20T00:28:31;10.53;;;5.93;;
5811;SDS011;2932;52.400;9.558;2022-11-20T00:31:07;9.90;;;6.10;;
5811;SDS011;2932;52.400;9.558;2022-11-20T00:33:34;11.73;;;6.33;;
5811;SDS011;2932;52.400;9.558;2022-11-20T00:36:00;9.90;;;5.57;;
5811;SDS011;2932;52.400;9.558;2022-11-20T00:38:31;10.73;;;6.63;;
5811;SDS011;2932;52.400;9.558;2022-11-20T00:40:57;10.27;;;6.77;;
5811;SDS011;2932;52.400;9.558;2022-11-20T00:43:23;10.23;;;6.23;;
5811;SDS011;2932;52.400;9.558;2022-11-20T00:45:49;10.67;;;6.17;;
5811;SDS011;2932;52.400;9.558;2022-11-20T00:48:15;10.20;;;6.87;;
5811;SDS011;2932;52.400;9.558;2022-11-20T00:50:40;9.23;;;6.13;;
5811;SDS011;2932;52.400;9.558;2022-11-20T00:53:06;10.63;;;6.00;;
5811;SDS011;2932;52.400;9.558;2022-11-20T00:55:31;12.60;;;7.27;;
5811;SDS011;2932;52.400;9.558;2022-11-20T00:57:56;9.90;;;6.33;;
5811;SDS011;2932;52.400;9.558;2022-11-20T01:00:22;11.17;;;6.83;;
5811;SDS011;2932;52.400;9.558;2022-11-20T01:02:47;9.47;;;6.47;;
5811;SDS011;2932;52.400;9.558;2022-11-20T01:05:12;12.33;;;6.63;;
5811;SDS011;2932;52.400;9.558;2022-11-20T01:07:38;10.50;;;6.40;;
5811;SDS011;2932;52.400;9.558;2022-11-20T01:10:03;12.77;;;6.43;;
5811;SDS011;2932;52.400;9.558;2022-11-20T01:12:29;12.23;;;7.00;;
5811;SDS011;2932;52.400;9.558;2022-11-20T01:14:54;10.50;;;6.40;;
5811;SDS011;2932;52.400;9.558;2022-11-20T01:17:19;9.33;;;5.93;;
5811;SDS011;2932;52.400;9.558;2022-11-20T01:19:45;9.87;;;5.97;;
5811;SDS011;2932;52.400;9.558;2022-11-20T01:22:14;9.53;;;5.50;;
5811;SDS011;2932;52.400;9.558;2022-11-20T01:24:39;13.07;;;6.50;;
5811;SDS011;2932;52.400;9.558;2022-11-20T01:27:04;10.87;;;6.63;;
5811;SDS011;2932;52.400;9.558;2022-11-20T01:29:30;13.03;;;6.73;;
5811;SDS011;2932;52.400;9.558;2022-11-20T01:31:55;13.10;;;6.23;;
5811;SDS011;2932;52.400;9.558;2022-11-20T01:34:21;11.17;;;6.40;;
5811;SDS011;2932;52.400;9.558;2022-11-20T01:36:47;9.33;;;6.33;;
5811;SDS011;2932;52.400;9.558;2022-11-20T01:39:14;9.17;;;6.27;;
5811;SDS011;2932;52.400;9.558;2022-11-20T01:41:50;8.73;;;5.90;;
5811;SDS011;2932;52.400;9.558;2022-11-20T01:47:17;10.63;;;5.93;;
5811;SDS011;2932;52.400;9.558;2022-11-20T01:49:50;10.07;;;6.23;;
5811;SDS011;2932;52.400;9.558;2022-11-20T01:52:22;9.20;;;6.00;;
5811;SDS011;2932;52.400;9.558;2022-11-20T01:55:03;9.93;;;5.77;;
5811;SDS011;2932;52.400;9.558;2022-11-20T01:57:33;7.37;;;5.27;;
5811;SDS011;2932;52.400;9.558;2022-11-20T02:00:02;8.80;;;5.67;;
5811;SDS011;2932;52.400;9.558;2022-11-20T02:02:32;10.20;;;6.07;;
5811;SDS011;2932;52.400;9.558;2022-11-20T02:05:00;8.33;;;5.97;;
5811;SDS011;2932;52.400;9.558;2022-11-20T02:07:34;10.10;;;6.27;;
5811;SDS011;2932;52.400;9.558;2022-11-20T02:09:59;10.40;;;6.23;;
5811;SDS011;2932;52.400;9.558;2022-11-20T02:12:25;9.40;;;6.07;;
5811;SDS011;2932;52.400;9.558;2022-11-20T02:15:09;8.97;;;6.13;;
5811;SDS011;2932;52.400;9.558;2022-11-20T02:17:34;9.40;;;5.80;;
5811;SDS011;2932;52.400;9.558;2022-11-20T02:20:00;9.10;;;6.30;;
5811;SDS011;2932;52.400;9.558;2022-11-20T02:22:29;7.60;;;5.43;;
5811;SDS011;2932;52.400;9.558;2022-11-20T02:25:03;10.60;;;5.37;;
5811;SDS011;2932;52.400;9.558;2022-11-20T02:27:31;9.83;;;5.70;;
5811;SDS011;2932;52.400;9.558;2022-11-20T02:29:57;10.43;;;5.77;;
5811;SDS011;2932;52.400;9.558;2022-11-20T02:34:53;9.70;;;6.10;;
5811;SDS011;2932;52.400;9.558;2022-11-20T02:37:19;14.63;;;7.83;;
5811;SDS011;2932;52.400;9.558;2022-11-20T02:39:46;13.63;;;8.13;;
5811;SDS011;2932;52.400;9.558;2022-11-20T02:42:14;13.10;;;7.17;;
5811;SDS011;2932;52.400;9.558;2022-11-20T02:44:39;14.30;;;8.10;;
5811;SDS011;2932;52.400;9.558;2022-11-20T02:47:05;15.53;;;8.27;;
5811;SDS011;2932;52.400;9.558;2022-11-20T02:49:30;12.87;;;8.27;;
5811;SDS011;2932;52.400;9.558;2022-11-20T02:51:56;14.10;;;7.43;;
5811;SDS011;2932;52.400;9.558;2022-11-20T02:54:21;10.90;;;7.40;;
5811;SDS011;2932;52.400;9.558;2022-11-20T02:56:46;10.87;;;6.70;;
5811;SDS011;2932;52.400;9.558;2022-11-20T02:59:12;11.77;;;6.33;;
5811;SDS011;2932;52.400;9.558;2022-11-20T03:01:37;13.67;;;7.10;;
5811;SDS011;2932;52.400;9.558;2022-11-20T03:04:02;11.00;;;7.43;;
5811;SDS011;2932;52.400;9.558;2022-11-20T03:06:28;12.53;;;7.13;;
5811;SDS011;2932;52.400;9.558;2022-11-20T03:08:53;10.57;;;6.43;;
5811;SDS011;2932;52.400;9.558;2022-11-20T03:11:18;10.43;;;6.33;;
5811;SDS011;2932;52.400;9.558;2022-11-20T03:13:44;9.40;;;5.73;;
5811;SDS011;2932;52.400;9.558;2022-11-20T03:16:13;11.20;;;6.60;;
5811;SDS011;2932;52.400;9.558;2022-11-20T03:18:41;8.67;;;5.67;;
5811;SDS011;2932;52.400;9.558;2022-11-20T03:21:07;10.87;;;6.17;;
5811;SDS011;2932;52.400;9.558;2022-11-20T03:23:34;10.37;;;6.23;;
5811;SDS011;2932;52.400;9.558;2022-11-20T03:26:13;10.80;;;6.10;;
5811;SDS011;2932;52.400;9.558;2022-11-20T03:28:39;10.63;;;6.47;;
5811;SDS011;2932;52.400;9.558;2022-11-20T03:31:08;9.50;;;6.03;;
5811;SDS011;2932;52.400;9.558;2022-11-20T03:33:36;8.67;;;5.83;;
5811;SDS011;2932;52.400;9.558;2022-11-20T03:36:04;8.77;;;6.07;;
5811;SDS011;2932;52.400;9.558;2022-11-20T03:38:31;7.97;;;5.83;;
5811;SDS011;2932;52.400;9.558;2022-11-20T03:40:58;9.40;;;6.07;;
5811;SDS011;2932;52.400;9.558;2022-11-20T03:43:24;10.77;;;5.83;;
5811;SDS011;2932;52.400;9.558;2022-11-20T03:45:50;12.07;;;5.60;;
5811;SDS011;2932;52.400;9.558;2022-11-20T03:48:15;8.13;;;5.57;;
5811;SDS011;2932;52.400;9.558;2022-11-20T03:50:40;8.63;;;5.53;;
5811;SDS011;2932;52.400;9.558;2022-11-20T03:53:05;7.90;;;5.37;;
5811;SDS011;2932;52.400;9.558;2022-11-20T03:55:31;10.47;;;6.47;;
5811;SDS011;2932;52.400;9.558;2022-11-20T03:57:56;8.47;;;5.63;;
5811;SDS011;2932;52.400;9.558;2022-11-20T04:00:21;8.87;;;5.60;;
5811;SDS011;2932;52.400;9.558;2022-11-20T04:02:47;9.33;;;5.20;;
5811;SDS011;2932;52.400;9.558;2022-11-20T04:05:12;10.37;;;6.17;;
5811;SDS011;2932;52.400;9.558;2022-11-20T04:07:37;10.43;;;5.60;;
5811;SDS011;2932;52.400;9.558;2022-11-20T04:10:03;9.60;;;5.07;;
5811;SDS011;2932;52.400;9.558;2022-11-20T04:12:31;12.33;;;5.40;;
5811;SDS011;2932;52.400;9.558;2022-11-20T04:14:57;8.77;;;5.93;;
5811;SDS011;2932;52.400;9.558;2022-11-20T04:17:22;11.77;;;5.73;;
5811;SDS011;2932;52.400;9.558;2022-11-20T04:19:47;9.57;;;5.37;;
5811;SDS011;2932;52.400;9.558;2022-11-20T04:22:13;8.63;;;5.70;;
5811;SDS011;2932;52.400;9.558;2022-11-20T04:24:38;11.13;;;5.63;;
5811;SDS011;2932;52.400;9.558;2022-11-20T04:27:03;9.93;;;5.80;;
5811;SDS011;2932;52.400;9.558;2022-11-20T04:29:29;11.87;;;5.50;;
5811;SDS011;2932;52.400;9.558;2022-11-20T04:31:54;7.83;;;5.27;;
5811;SDS011;2932;52.400;9.558;2022-11-20T04:34:19;9.03;;;5.73;;
5811;SDS011;2932;52.400;9.558;2022-11-20T04:36:45;8.20;;;5.63;;
5811;SDS011;2932;52.400;9.558;2022-11-20T04:39:13;8.73;;;5.80;;
5811;SDS011;2932;52.400;9.558;2022-11-20T04:41:42;10.87;;;6.00;;
5811;SDS011;2932;52.400;9.558;2022-11-20T04:44:08;10.07;;;5.73;;
5811;SDS011;2932;52.400;9.558;2022-11-20T04:46:34;9.23;;;5.90;;
5811;SDS011;2932;52.400;9.558;2022-11-20T04:49:02;8.90;;;5.67;;
5811;SDS011;2932;52.400;9.558;2022-11-20T04:51:27;9.33;;;5.53;;
5811;SDS011;2932;52.400;9.558;2022-11-20T04:53:53;7.97;;;5.70;;
5811;SDS011;2932;52.400;9.558;2022-11-20T04:56:19;9.67;;;5.90;;
5811;SDS011;2932;52.400;9.558;2022-11-20T04:58:44;9.23;;;5.17;;
5811;SDS011;2932;52.400;9.558;2022-11-20T05:01:13;10.37;;;6.17;;
5811;SDS011;2932;52.400;9.558;2022-11-20T05:03:41;10.17;;;5.77;;
5811;SDS011;2932;52.400;9.558;2022-11-20T05:06:07;9.83;;;6.10;;
5811;SDS011;2932;52.400;9.558;2022-11-20T05:08:34;8.57;;;5.17;;
5811;SDS011;2932;52.400;9.558;2022-11-20T05:11:00;7.43;;;5.33;;
5811;SDS011;2932;52.400;9.558;2022-11-20T05:13:29;8.00;;;6.00;;
5811;SDS011;2932;52.400;9.558;2022-11-20T05:15:55;8.07;;;5.70;;
5811;SDS011;2932;52.400;9.558;2022-11-20T05:18:20;6.77;;;4.77;;
5811;SDS011;2932;52.400;9.558;2022-11-20T05:20:45;7.57;;;5.10;;
5811;SDS011;2932;52.400;9.558;2022-11-20T05:23:11;8.80;;;5.53;;
5811;SDS011;2932;52.400;9.558;2022-11-20T05:25:36;7.20;;;5.57;;
5811;SDS011;2932;52.400;9.558;2022-11-20T05:28:01;7.60;;;5.23;;
5811;SDS011;2932;52.400;9.558;2022-11-20T05:30:27;9.63;;;5.43;;
5811;SDS011;2932;52.400;9.558;2022-11-20T05:32:52;8.27;;;5.17;;
5811;SDS011;2932;52.400;9.558;2022-11-20T05:35:18;8.07;;;5.63;;
5811;SDS011;2932;52.400;9.558;2022-11-20T05:37:43;7.90;;;5.10;;
5811;SDS011;2932;52.400;9.558;2022-11-20T05:40:08;10.80;;;5.60;;
5811;SDS011;2932;52.400;9.558;2022-11-20T05:42:34;8.10;;;5.47;;
5811;SDS011;2932;52.400;9.558;2022-11-20T05:45:01;10.40;;;5.07;;
5811;SDS011;2932;52.400;9.558;2022-11-20T05:47:28;7.93;;;5.17;;
5811;SDS011;2932;52.400;9.558;2022-11-20T05:49:57;8.00;;;5.03;;
5811;SDS011;2932;52.400;9.558;2022-11-20T05:52:22;8.63;;;5.57;;
5811;SDS011;2932;52.400;9.558;2022-11-20T05:54:47;8.60;;;4.60;;
5811;SDS011;2932;52.400;9.558;2022-11-20T05:57:13;8.80;;;5.03;;
5811;SDS011;2932;52.400;9.558;2022-11-20T05:59:38;7.63;;;4.80;;
5811;SDS011;2932;52.400;9.558;2022-11-20T06:02:03;8.83;;;5.43;;
5811;SDS011;2932;52.400;9.558;2022-11-20T06:04:29;9.17;;;5.47;;
5811;SDS011;2932;52.400;9.558;2022-11-20T06:06:54;7.47;;;4.80;;
5811;SDS011;2932;52.400;9.558;2022-11-20T06:09:19;9.00;;;4.20;;
5811;SDS011;2932;52.400;9.558;2022-11-20T06:11:45;9.40;;;5.20;;
5811;SDS011;2932;52.400;9.558;2022-11-20T06:14:10;8.13;;;4.53;;
5811;SDS011;2932;52.400;9.558;2022-11-20T06:16:35;7.40;;;4.30;;
5811;SDS011;2932;52.400;9.558;2022-11-20T06:19:01;6.60;;;4.90;;
5811;SDS011;2932;52.400;9.558;2022-11-20T06:21:26;10.47;;;4.93;;
5811;SDS011;2932;52.400;9.558;2022-11-20T06:23:52;9.43;;;5.33;;
5811;SDS011;2932;52.400;9.558;2022-11-20T06:26:20;6.87;;;4.40;;
5811;SDS011;2932;52.400;9.558;2022-11-20T06:28:49;7.33;;;4.37;;
5811;SDS011;2932;52.400;9.558;2022-11-20T06:31:16;9.27;;;5.20;;
5811;SDS011;2932;52.400;9.558;2022-11-20T06:33:43;8.47;;;4.90;;
5811;SDS011;2932;52.400;9.558;2022-11-20T06:36:10;8.83;;;5.33;;
5811;SDS011;2932;52.400;9.558;2022-11-20T06:38:36;8.37;;;4.97;;
5811;SDS011;2932;52.400;9.558;2022-11-20T06:41:03;8.10;;;5.10;;
5811;SDS011;2932;52.400;9.558;2022-11-20T06:43:30;9.70;;;5.47;;
5811;SDS011;2932;52.400;9.558;2022-11-20T06:45:56;8.20;;;5.27;;
5811;SDS011;2932;52.400;9.558;2022-11-20T06:48:23;8.53;;;5.17;;
5811;SDS011;2932;52.400;9.558;2022-11-20T06:50:49;8.07;;;5.17;;
5811;SDS011;2932;52.400;9.558;2022-11-20T06:53:14;7.67;;;5.00;;
5811;SDS011;2932;52.400;9.558;2022-11-20T06:55:43;8.13;;;5.13;;
5811;SDS011;2932;52.400;9.558;2022-11-20T06:58:12;7.27;;;5.27;;
5811;SDS011;2932;52.400;9.558;2022-11-20T07:00:39;7.70;;;5.43;;
5811;SDS011;2932;52.400;9.558;2022-11-20T07:03:08;8.33;;;5.10;;
5811;SDS011;2932;52.400;9.558;2022-11-20T07:05:35;8.63;;;5.33;;
5811;SDS011;2932;52.400;9.558;2022-11-20T07:08:01;8.60;;;5.40;;
5811;SDS011;2932;52.400;9.558;2022-11-20T07:10:26;7.93;;;5.07;;
5811;SDS011;2932;52.400;9.558;2022-11-20T07:12:52;8.83;;;5.50;;
5811;SDS011;2932;52.400;9.558;2022-11-20T07:15:19;7.57;;;4.97;;
5811;SDS011;2932;52.400;9.558;2022-11-20T07:17:46;7.40;;;4.80;;
5811;SDS011;2932;52.400;9.558;2022-11-20T07:20:12;8.53;;;5.00;;
5811;SDS011;2932;52.400;9.558;2022-11-20T07:22:37;8.07;;;4.67;;
5811;SDS011;2932;52.400;9.558;2022-11-20T07:25:03;6.97;;;4.57;;
5811;SDS011;2932;52.400;9.558;2022-11-20T07:27:29;7.07;;;5.20;;
5811;SDS011;2932;52.400;9.558;2022-11-20T07:29:55;9.70;;;4.93;;
5811;SDS011;2932;52.400;9.558;2022-11-20T07:32:20;7.17;;;4.63;;
5811;SDS011;2932;52.400;9.558;2022-11-20T07:34:46;9.63;;;4.83;;
5811;SDS011;2932;52.400;9.558;2022-11-20T07:37:12;7.70;;;4.77;;
5811;SDS011;2932;52.400;9.558;2022-11-20T07:39:37;10.63;;;5.63;;
5811;SDS011;2932;52.400;9.558;2022-11-20T07:42:03;7.33;;;5.17;;
5811;SDS011;2932;52.400;9.558;2022-11-20T07:44:28;7.60;;;4.70;;
5811;SDS011;2932;52.400;9.558;2022-11-20T07:46:54;9.03;;;5.40;;
5811;SDS011;2932;52.400;9.558;2022-11-20T07:49:19;6.33;;;4.27;;
5811;SDS011;2932;52.400;9.558;2022-11-20T07:51:44;11.30;;;5.53;;
5811;SDS011;2932;52.400;9.558;2022-11-20T07:54:09;8.70;;;4.90;;
5811;SDS011;2932;52.400;9.558;2022-11-20T07:56:35;6.77;;;5.07;;
5811;SDS011;2932;52.400;9.558;2022-11-20T07:59:00;7.57;;;5.43;;
5811;SDS011;2932;52.400;9.558;2022-11-20T08:01:25;6.13;;;4.63;;
5811;SDS011;2932;52.400;9.558;2022-11-20T08:03:51;8.83;;;5.20;;
5811;SDS011;2932;52.400;9.558;2022-11-20T08:06:16;8.93;;;5.03;;
5811;SDS011;2932;52.400;9.558;2022-11-20T08:08:43;7.70;;;4.87;;
5811;SDS011;2932;52.400;9.558;2022-11-20T08:11:09;8.90;;;5.40;;
5811;SDS011;2932;52.400;9.558;2022-11-20T08:13:53;7.27;;;4.90;;
5811;SDS011;2932;52.400;9.558;2022-11-20T08:16:37;8.47;;;5.97;;
5811;SDS011;2932;52.400;9.558;2022-11-20T08:19:06;10.27;;;5.73;;
5811;SDS011;2932;52.400;9.558;2022-11-20T08:21:32;8.20;;;5.73;;
5811;SDS011;2932;52.400;9.558;2022-11-20T08:23:58;10.70;;;5.73;;
5811;SDS011;2932;52.400;9.558;2022-11-20T08:26:24;9.07;;;5.90;;
5811;SDS011;2932;52.400;9.558;2022-11-20T08:28:53;6.47;;;4.90;;
5811;SDS011;2932;52.400;9.558;2022-11-20T08:31:22;11.67;;;4.93;;
5811;SDS011;2932;52.400;9.558;2022-11-20T08:33:48;9.63;;;5.10;;
5811;SDS011;2932;52.400;9.558;2022-11-20T08:36:13;8.00;;;5.00;;
5811;SDS011;2932;52.400;9.558;2022-11-20T08:38:39;8.73;;;5.20;;
5811;SDS011;2932;52.400;9.558;2022-11-20T08:41:04;9.03;;;4.90;;
5811;SDS011;2932;52.400;9.558;2022-11-20T08:43:57;7.03;;;4.50;;
5811;SDS011;2932;52.400;9.558;2022-11-20T08:46:31;7.53;;;4.67;;
5811;SDS011;2932;52.400;9.558;2022-11-20T08:48:58;7.87;;;5.13;;
5811;SDS011;2932;52.400;9.558;2022-11-20T08:51:24;8.13;;;5.00;;
5811;SDS011;2932;52.400;9.558;2022-11-20T08:53:49;7.60;;;4.70;;
5811;SDS011;2932;52.400;9.558;2022-11-20T08:56:15;8.20;;;5.17;;
5811;SDS011;2932;52.400;9.558;2022-11-20T08:58:41;9.17;;;4.93;;
5811;SDS011;2932;52.400;9.558;2022-11-20T09:01:06;9.23;;;4.60;;
5811;SDS011;2932;52.400;9.558;2022-11-20T09:03:32;9.60;;;5.93;;
5811;SDS011;2932;52.400;9.558;2022-11-20T09:06:03;8.97;;;5.60;;
5811;SDS011;2932;52.400;9.558;2022-11-20T09:08:30;7.40;;;5.40;;
5811;SDS011;2932;52.400;9.558;2022-11-20T09:10:56;10.53;;;5.43;;
5811;SDS011;2932;52.400;9.558;2022-11-20T09:13:22;9.77;;;5.70;;
5811;SDS011;2932;52.400;9.558;2022-11-20T09:18:20;8.17;;;4.97;;
5811;SDS011;2932;52.400;9.558;2022-11-20T09:20:46;8.83;;;5.83;;
5811;SDS011;2932;52.400;9.558;2022-11-20T09:23:11;9.23;;;5.67;;
5811;SDS011;2932;52.400;9.558;2022-11-20T09:25:37;9.07;;;5.90;;
5811;SDS011;2932;52.400;9.558;2022-11-20T09:28:02;8.23;;;5.40;;
5811;SDS011;2932;52.400;9.558;2022-11-20T09:30:28;8.50;;;5.40;;
5811;SDS011;2932;52.400;9.558;2022-11-20T09:32:53;9.97;;;5.73;;
5811;SDS011;2932;52.400;9.558;2022-11-20T09:35:18;9.30;;;5.67;;
5811;SDS011;2932;52.400;9.558;2022-11-20T09:37:44;8.77;;;5.60;;
5811;SDS011;2932;52.400;9.558;2022-11-20T09:40:28;7.73;;;5.40;;
5811;SDS011;2932;52.400;9.558;2022-11-20T09:45:56;6.73;;;4.60;;
5811;SDS011;2932;52.400;9.558;2022-11-20T09:51:05;7.30;;;4.23;;
5811;SDS011;2932;52.400;9.558;2022-11-20T09:56:26;7.30;;;5.37;;
5811;SDS011;2932;52.400;9.558;2022-11-20T09:58:54;7.23;;;5.00;;
5811;SDS011;2932;52.400;9.558;2022-11-20T10:01:23;6.30;;;4.70;;
5811;SDS011;2932;52.400;9.558;2022-11-20T10:06:30;8.53;;;5.07;;
5811;SDS011;2932;52.400;9.558;2022-11-20T10:09:11;9.33;;;5.10;;
5811;SDS011;2932;52.400;9.558;2022-11-20T10:14:38;8.23;;;5.30;;
5811;SDS011;2932;52.400;9.558;2022-11-20T10:29:14;6.67;;;4.90;;
5811;SDS011;2932;52.400;9.558;2022-11-20T10:31:34;9.83;;;5.33;;
5811;SDS011;2932;52.400;9.558;2022-11-20T10:34:05;7.60;;;5.63;;
5811;SDS011;2932;52.400;9.558;2022-11-20T10:36:46;10.03;;;5.10;;
5811;SDS011;2932;52.400;9.558;2022-11-20T10:41:51;9.97;;;5.80;;
5811;SDS011;2932;52.400;9.558;2022-11-20T10:44:22;9.87;;;5.13;;
5811;SDS011;2932;52.400;9.558;2022-11-20T10:47:20;10.80;;;6.03;;
5811;SDS011;2932;52.400;9.558;2022-11-20T10:49:50;9.50;;;6.50;;
5811;SDS011;2932;52.400;9.558;2022-11-20T10:58:12;9.00;;;5.80;;
5811;SDS011;2932;52.400;9.558;2022-11-20T11:00:39;8.97;;;5.97;;
5811;SDS011;2932;52.400;9.558;2022-11-20T11:03:24;10.20;;;6.27;;
5811;SDS011;2932;52.400;9.558;2022-11-20T11:06:17;8.77;;;5.73;;
5811;SDS011;2932;52.400;9.558;2022-11-20T11:08:50;9.70;;;6.13;;
5811;SDS011;2932;52.400;9.558;2022-11-20T11:11:20;12.67;;;6.77;;
5811;SDS011;2932;52.400;9.558;2022-11-20T11:13:49;10.03;;;6.13;;
5811;SDS011;2932;52.400;9.558;2022-11-20T11:16:22;10.53;;;6.63;;
5811;SDS011;2932;52.400;9.558;2022-11-20T11:18:49;11.27;;;6.43;;
5811;SDS011;2932;52.400;9.558;2022-11-20T11:21:25;11.00;;;7.20;;
5811;SDS011;2932;52.400;9.558;2022-11-20T11:24:02;10.87;;;6.40;;
5811;SDS011;2932;52.400;9.558;2022-11-20T11:26:28;15.30;;;7.07;;
5811;SDS011;2932;52.400;9.558;2022-11-20T11:31:24;11.07;;;6.47;;
5811;SDS011;2932;52.400;9.558;2022-11-20T11:36:32;12.83;;;6.63;;
5811;SDS011;2932;52.400;9.558;2022-11-20T11:39:00;13.53;;;8.80;;
5811;SDS011;2932;52.400;9.558;2022-11-20T11:41:31;12.77;;;6.93;;
5811;SDS011;2932;52.400;9.558;2022-11-20T11:44:15;9.23;;;6.10;;
5811;SDS011;2932;52.400;9.558;2022-11-20T11:47:02;16.73;;;9.27;;
5811;SDS011;2932;52.400;9.558;2022-11-20T11:49:30;15.00;;;8.70;;
5811;SDS011;2932;52.400;9.558;2022-11-20T11:54:53;10.40;;;6.80;;
5811;SDS011;2932;52.400;9.558;2022-11-20T11:57:29;12.03;;;7.47;;
5811;SDS011;2932;52.400;9.558;2022-11-20T12:00:08;10.57;;;6.33;;
5811;SDS011;2932;52.400;9.558;2022-11-20T12:05:03;11.80;;;6.97;;
5811;SDS011;2932;52.400;9.558;2022-11-20T12:08:02;10.40;;;6.73;;
5811;SDS011;2932;52.400;9.558;2022-11-20T12:11:16;9.50;;;6.60;;
5811;SDS011;2932;52.400;9.558;2022-11-20T12:14:11;10.40;;;6.50;;
5811;SDS011;2932;52.400;9.558;2022-11-20T12:16:44;13.30;;;7.10;;
5811;SDS011;2932;52.400;9.558;2022-11-20T12:19:13;10.53;;;6.93;;
5811;SDS011;2932;52.400;9.558;2022-11-20T12:30:28;10.57;;;6.43;;
5811;SDS011;2932;52.400;9.558;2022-11-20T12:36:01;12.85;;;9.02;;
5811;SDS011;2932;52.400;9.558;2022-11-20T12:41:25;13.63;;;6.80;;
5811;SDS011;2932;52.400;9.558;2022-11-20T12:44:48;9.67;;;6.53;;
5811;SDS011;2932;52.400;9.558;2022-11-20T12:58:12;10.60;;;6.73;;
5811;SDS011;2932;52.400;9.558;2022-11-20T13:00:58;11.33;;;7.07;;
5811;SDS011;2932;52.400;9.558;2022-11-20T13:03:37;13.57;;;7.53;;
5811;SDS011;2932;52.400;9.558;2022-11-20T13:06:15;10.00;;;7.30;;
5811;SDS011;2932;52.400;9.558;2022-11-20T13:08:48;11.17;;;7.60;;
5811;SDS011;2932;52.400;9.558;2022-11-20T13:14:11;13.23;;;6.80;;
5811;SDS011;2932;52.400;9.558;2022-11-20T13:19:14;10.67;;;6.90;;
5811;SDS011;2932;52.400;9.558;2022-11-20T13:21:43;8.90;;;6.53;;
5811;SDS011;2932;52.400;9.558;2022-11-20T13:29:31;10.27;;;6.53;;
5811;SDS011;2932;52.400;9.558;2022-11-20T13:34:39;8.67;;;6.57;;
5811;SDS011;2932;52.400;9.558;2022-11-20T13:37:04;10.23;;;7.40;;
5811;SDS011;2932;52.400;9.558;2022-11-20T13:39:33;11.00;;;7.07;;
5811;SDS011;2932;52.400;9.558;2022-11-20T13:44:38;9.73;;;7.70;;
5811;SDS011;2932;52.400;9.558;2022-11-20T13:47:28;10.30;;;7.17;;
5811;SDS011;2932;52.400;9.558;2022-11-20T13:49:54;10.03;;;6.50;;
5811;SDS011;2932;52.400;9.558;2022-11-20T13:55:26;11.33;;;8.30;;
5811;SDS011;2932;52.400;9.558;2022-11-20T14:01:00;12.27;;;7.37;;
5811;SDS011;2932;52.400;9.558;2022-11-20T14:03:33;11.10;;;6.83;;
5811;SDS011;2932;52.400;9.558;2022-11-20T14:06:01;10.17;;;7.03;;
5811;SDS011;2932;52.400;9.558;2022-11-20T14:13:38;14.37;;;8.23;;
5811;SDS011;2932;52.400;9.558;2022-11-20T14:16:04;13.23;;;8.03;;
5811;SDS011;2932;52.400;9.558;2022-11-20T14:18:29;11.53;;;7.27;;
5811;SDS011;2932;52.400;9.558;2022-11-20T14:20:54;13.33;;;7.23;;
5811;SDS011;2932;52.400;9.558;2022-11-20T14:23:26;10.67;;;7.40;;
5811;SDS011;2932;52.400;9.558;2022-11-20T14:25:53;11.73;;;7.47;;
5811;SDS011;2932;52.400;9.558;2022-11-20T14:28:21;13.20;;;8.80;;
5811;SDS011;2932;52.400;9.558;2022-11-20T14:30:51;11.80;;;8.00;;
5811;SDS011;2932;52.400;9.558;2022-11-20T14:33:17;12.10;;;7.20;;
5811;SDS011;2932;52.400;9.558;2022-11-20T14:35:46;12.80;;;7.83;;
5811;SDS011;2932;52.400;9.558;2022-11-20T14:38:17;14.50;;;8.00;;
5811;SDS011;2932;52.400;9.558;2022-11-20T14:40:46;9.87;;;7.20;;
5811;SDS011;2932;52.400;9.558;2022-11-20T14:43:19;12.77;;;7.07;;
5811;SDS011;2932;52.400;9.558;2022-11-20T14:45:54;10.70;;;7.63;;
5811;SDS011;2932;52.400;9.558;2022-11-20T14:48:45;15.23;;;9.67;;
5811;SDS011;2932;52.400;9.558;2022-11-20T14:51:09;10.37;;;7.27;;
5811;SDS011;2932;52.400;9.558;2022-11-20T14:53:35;12.57;;;7.67;;
5811;SDS011;2932;52.400;9.558;2022-11-20T14:56:01;11.90;;;7.17;;
5811;SDS011;2932;52.400;9.558;2022-11-20T14:58:31;10.30;;;7.40;;
5811;SDS011;2932;52.400;9.558;2022-11-20T15:01:05;13.17;;;7.53;;
5811;SDS011;2932;52.400;9.558;2022-11-20T15:03:36;12.80;;;7.83;;
5811;SDS011;2932;52.400;9.558;2022-11-20T15:06:03;11.80;;;7.00;;
5811;SDS011;2932;52.400;9.558;2022-11-20T15:08:32;12.20;;;8.13;;
5811;SDS011;2932;52.400;9.558;2022-11-20T15:10:58;10.23;;;6.73;;
5811;SDS011;2932;52.400;9.558;2022-11-20T15:15:55;10.17;;;6.90;;
5811;SDS011;2932;52.400;9.558;2022-11-20T15:20:57;12.27;;;7.70;;
5811;SDS011;2932;52.400;9.558;2022-11-20T15:23:26;11.43;;;7.53;;
5811;SDS011;2932;52.400;9.558;2022-11-20T15:25:52;15.23;;;8.17;;
5811;SDS011;2932;52.400;9.558;2022-11-20T15:28:21;17.00;;;9.67;;
5811;SDS011;2932;52.400;9.558;2022-11-20T15:30:52;12.60;;;8.40;;
5811;SDS011;2932;52.400;9.558;2022-11-20T15:33:17;12.23;;;7.97;;
5811;SDS011;2932;52.400;9.558;2022-11-20T15:35:43;13.63;;;7.73;;
5811;SDS011;2932;52.400;9.558;2022-11-20T15:38:08;12.10;;;7.70;;
5811;SDS011;2932;52.400;9.558;2022-11-20T15:40:34;13.70;;;7.80;;
5811;SDS011;2932;52.400;9.558;2022-11-20T15:43:00;15.27;;;9.33;;
5811;SDS011;2932;52.400;9.558;2022-11-20T15:45:28;15.70;;;9.17;;
5811;SDS011;2932;52.400;9.558;2022-11-20T15:48:02;16.00;;;9.47;;
5811;SDS011;2932;52.400;9.558;2022-11-20T15:50:36;16.03;;;9.33;;
5811;SDS011;2932;52.400;9.558;2022-11-20T15:53:03;17.27;;;9.30;;
5811;SDS011;2932;52.400;9.558;2022-11-20T15:55:29;14.67;;;8.93;;
5811;SDS011;2932;52.400;9.558;2022-11-20T15:57:55;17.97;;;10.50;;
5811;SDS011;2932;52.400;9.558;2022-11-20T16:00:20;19.67;;;11.23;;
5811;SDS011;2932;52.400;9.558;2022-11-20T16:02:46;17.93;;;10.47;;
5811;SDS011;2932;52.400;9.558;2022-11-20T16:05:11;25.93;;;12.33;;
5811;SDS011;2932;52.400;9.558;2022-11-20T16:07:38;22.57;;;11.47;;
5811;SDS011;2932;52.400;9.558;2022-11-20T16:10:04;20.40;;;11.43;;
5811;SDS011;2932;52.400;9.558;2022-11-20T16:12:29;20.37;;;11.13;;
5811;SDS011;2932;52.400;9.558;2022-11-20T16:15:13;18.50;;;10.90;;
5811;SDS011;2932;52.400;9.558;2022-11-20T16:17:59;16.00;;;9.20;;
5811;SDS011;2932;52.400;9.558;2022-11-20T16:20:24;20.00;;;12.57;;
5811;SDS011;2932;52.400;9.558;2022-11-20T16:22:49;19.70;;;11.87;;
5811;SDS011;2932;52.400;9.558;2022-11-20T16:25:15;16.60;;;9.67;;
5811;SDS011;2932;52.400;9.558;2022-11-20T16:27:41;16.30;;;10.20;;
5811;SDS011;2932;52.400;9.558;2022-11-20T16:30:06;16.63;;;9.87;;
5811;SDS011;2932;52.400;9.558;2022-11-20T16:32:32;23.67;;;13.00;;
5811;SDS011;2932;52.400;9.558;2022-11-20T16:34:58;26.67;;;14.13;;
5811;SDS011;2932;52.400;9.558;2022-11-20T16:37:23;18.50;;;11.10;;
5811;SDS011;2932;52.400;9.558;2022-11-20T16:39:48;16.40;;;9.60;;
5811;SDS011;2932;52.400;9.558;2022-11-20T16:42:14;17.67;;;9.60;;
5811;SDS011;2932;52.400;9.558;2022-11-20T16:44:39;15.30;;;9.83;;
5811;SDS011;2932;52.400;9.558;2022-11-20T16:47:04;14.70;;;10.00;;
5811;SDS011;2932;52.400;9.558;2022-11-20T16:49:30;14.03;;;9.67;;
5811;SDS011;2932;52.400;9.558;2022-11-20T16:51:57;15.70;;;10.17;;
5811;SDS011;2932;52.400;9.558;2022-11-20T16:54:22;20.13;;;11.47;;
5811;SDS011;2932;52.400;9.558;2022-11-20T16:56:48;19.77;;;11.97;;
5811;SDS011;2932;52.400;9.558;2022-11-20T16:59:14;19.80;;;11.60;;
5811;SDS011;2932;52.400;9.558;2022-11-20T17:01:40;16.33;;;10.43;;
5811;SDS011;2932;52.400;9.558;2022-11-20T17:04:06;16.40;;;9.77;;
5811;SDS011;2932;52.400;9.558;2022-11-20T17:06:33;16.47;;;9.90;;